sensor_id;sensor_type;location;lat;lon;timestamp;temperature;humidity
21950;DHT22;11139;51.284;7.226;2023-05-14T00:02:23;14.60;99.90
21950;DHT22;11139;51.284;7.226;2023-05-14T00:04:49;14.60;99.90
21950;DHT22;11139;51.284;7.226;2023-05-14T00:07:14;14.60;99.90
21950;DHT22;11139;51.284;7.226;2023-05-14T00:09:40;14.60;99.90
21950;DHT22;11139;51.284;7.226;2023-05-14T00:12:06;14.60;99.90
21950;DHT22;11139;51.284;7.226;2023-05-14T00:14:32;14.60;99.90
21950;DHT22;11139;51.284;7.226;2023-05-14T00:16:57;14.60;99.90
21950;DHT22;11139;51.284;7.226;2023-05-14T00:19:24;14.50;99.90
21950;DHT22;11139;51.284;7.226;2023-05-14T00:21:49;14.60;99.90
21950;DHT22;11139;51.284;7.226;2023-05-14T00:24:15;14.50;99.90
21950;DHT22;11139;51.284;7.226;2023-05-14T00:26:40;14.50;99.90
21950;DHT22;11139;51.284;7.226;2023-05-14T00:29:06;14.50;99.90
21950;DHT22;11139;51.284;7.226;2023-05-14T00:31:31;14.50;99.90
21950;DHT22;11139;51.284;7.226;2023-05-14T00:33:57;14.50;99.90
21950;DHT22;11139;51.284;7.226;2023-05-14T00:36:22;14.40;99.90
21950;DHT22;11139;51.284;7.226;2023-05-14T00:38:48;14.40;99.90
21950;DHT22;11139;51.284;7.226;2023-05-14T00:41:13;14.40;99.90
21950;DHT22;11139;51.284;7.226;2023-05-14T00:43:39;14.40;99.90
21950;DHT22;11139;51.284;7.226;2023-05-14T00:46:04;14.40;99.90
21950;DHT22;11139;51.284;7.226;2023-05-14T00:48:30;14.40;99.90
21950;DHT22;11139;51.284;7.226;2023-05-14T00:50:55;14.40;99.90
21950;DHT22;11139;51.284;7.226;2023-05-14T00:53:21;14.40;99.90
21950;DHT22;11139;51.284;7.226;2023-05-14T00:55:47;14.40;99.90
21950;DHT22;11139;51.284;7.226;2023-05-14T00:58:13;14.30;99.90
21950;DHT22;11139;51.284;7.226;2023-05-14T01:00:39;14.30;99.90
21950;DHT22;11139;51.284;7.226;2023-05-14T01:03:05;14.40;99.90
21950;DHT22;11139;51.284;7.226;2023-05-14T01:05:36;14.30;99.90
21950;DHT22;11139;51.284;7.226;2023-05-14T01:08:08;14.30;99.90
21950;DHT22;11139;51.284;7.226;2023-05-14T01:10:44;14.30;99.90
21950;DHT22;11139;51.284;7.226;2023-05-14T01:15:42;14.30;99.90
21950;DHT22;11139;51.284;7.226;2023-05-14T01:18:09;14.30;99.90
21950;DHT22;11139;51.284;7.226;2023-05-14T01:20:35;14.20;99.90
21950;DHT22;11139;51.284;7.226;2023-05-14T01:23:01;14.20;99.90
21950;DHT22;11139;51.284;7.226;2023-05-14T01:25:28;14.20;99.90
21950;DHT22;11139;51.284;7.226;2023-05-14T01:27:59;14.20;99.90
21950;DHT22;11139;51.284;7.226;2023-05-14T01:30:45;14.20;99.90
21950;DHT22;11139;51.284;7.226;2023-05-14T01:33:15;14.20;99.90
21950;DHT22;11139;51.284;7.226;2023-05-14T01:35:42;14.20;99.90
21950;DHT22;11139;51.284;7.226;2023-05-14T01:38:09;14.20;99.90
21950;DHT22;11139;51.284;7.226;2023-05-14T01:40:35;14.20;99.90
21950;DHT22;11139;51.284;7.226;2023-05-14T01:43:01;14.10;99.90
21950;DHT22;11139;51.284;7.226;2023-05-14T01:45:26;14.20;99.90
21950;DHT22;11139;51.284;7.226;2023-05-14T01:47:52;14.20;99.90
21950;DHT22;11139;51.284;7.226;2023-05-14T01:50:17;14.10;99.90
21950;DHT22;11139;51.284;7.226;2023-05-14T01:52:43;14.10;99.90
21950;DHT22;11139;51.284;7.226;2023-05-14T01:55:09;14.10;99.90
21950;DHT22;11139;51.284;7.226;2023-05-14T01:57:34;14.10;99.90
21950;DHT22;11139;51.284;7.226;2023-05-14T02:00:00;14.10;99.90
21950;DHT22;11139;51.284;7.226;2023-05-14T02:02:25;14.10;99.90
21950;DHT22;11139;51.284;7.226;2023-05-14T02:04:51;14.10;99.90
21950;DHT22;11139;51.284;7.226;2023-05-14T02:07:17;14.10;99.90
21950;DHT22;11139;51.284;7.226;2023-05-14T02:09:42;14.10;99.90
21950;DHT22;11139;51.284;7.226;2023-05-14T02:12:08;14.10;99.90
21950;DHT22;11139;51.284;7.226;2023-05-14T02:14:34;14.00;99.90
21950;DHT22;11139;51.284;7.226;2023-05-14T02:16:59;14.00;99.90
21950;DHT22;11139;51.284;7.226;2023-05-14T02:19:25;14.00;99.90
21950;DHT22;11139;51.284;7.226;2023-05-14T02:21:50;14.00;99.90
21950;DHT22;11139;51.284;7.226;2023-05-14T02:24:16;14.00;99.90
21950;DHT22;11139;51.284;7.226;2023-05-14T02:26:41;14.00;99.90
21950;DHT22;11139;51.284;7.226;2023-05-14T02:29:07;14.00;99.90
21950;DHT22;11139;51.284;7.226;2023-05-14T02:31:32;14.00;99.90
21950;DHT22;11139;51.284;7.226;2023-05-14T02:33:59;13.90;99.90
21950;DHT22;11139;51.284;7.226;2023-05-14T02:36:25;14.00;99.90
21950;DHT22;11139;51.284;7.226;2023-05-14T02:38:50;14.00;99.90
21950;DHT22;11139;51.284;7.226;2023-05-14T02:41:16;14.00;99.90
21950;DHT22;11139;51.284;7.226;2023-05-14T02:43:41;13.90;99.90
21950;DHT22;11139;51.284;7.226;2023-05-14T02:46:07;13.90;99.90
21950;DHT22;11139;51.284;7.226;2023-05-14T02:48:32;13.90;99.90
21950;DHT22;11139;51.284;7.226;2023-05-14T02:50:58;13.90;99.90
21950;DHT22;11139;51.284;7.226;2023-05-14T02:53:24;13.90;99.90
21950;DHT22;11139;51.284;7.226;2023-05-14T02:55:49;13.90;99.90
21950;DHT22;11139;51.284;7.226;2023-05-14T02:58:15;13.90;99.90
21950;DHT22;11139;51.284;7.226;2023-05-14T03:00:40;13.90;99.90
21950;DHT22;11139;51.284;7.226;2023-05-14T03:03:06;13.90;99.90
21950;DHT22;11139;51.284;7.226;2023-05-14T03:05:31;13.90;99.90
21950;DHT22;11139;51.284;7.226;2023-05-14T03:07:57;13.90;99.90
21950;DHT22;11139;51.284;7.226;2023-05-14T03:10:22;13.90;99.90
21950;DHT22;11139;51.284;7.226;2023-05-14T03:12:48;13.80;99.90
21950;DHT22;11139;51.284;7.226;2023-05-14T03:15:13;13.80;99.90
21950;DHT22;11139;51.284;7.226;2023-05-14T03:17:39;13.80;99.90
21950;DHT22;11139;51.284;7.226;2023-05-14T03:20:04;13.80;99.90
21950;DHT22;11139;51.284;7.226;2023-05-14T03:22:30;13.80;99.90
21950;DHT22;11139;51.284;7.226;2023-05-14T03:24:56;13.80;99.90
21950;DHT22;11139;51.284;7.226;2023-05-14T03:27:21;13.80;99.90
21950;DHT22;11139;51.284;7.226;2023-05-14T03:29:47;13.80;99.90
21950;DHT22;11139;51.284;7.226;2023-05-14T03:32:12;13.80;99.90
21950;DHT22;11139;51.284;7.226;2023-05-14T03:34:38;13.80;99.90
21950;DHT22;11139;51.284;7.226;2023-05-14T03:37:03;13.70;99.90
21950;DHT22;11139;51.284;7.226;2023-05-14T03:39:29;13.70;99.90
21950;DHT22;11139;51.284;7.226;2023-05-14T03:41:54;13.80;99.90
21950;DHT22;11139;51.284;7.226;2023-05-14T03:44:21;13.70;99.90
21950;DHT22;11139;51.284;7.226;2023-05-14T03:46:46;13.80;99.90
21950;DHT22;11139;51.284;7.226;2023-05-14T03:49:12;13.70;99.90
21950;DHT22;11139;51.284;7.226;2023-05-14T03:51:37;13.70;99.90
21950;DHT22;11139;51.284;7.226;2023-05-14T03:54:03;13.70;99.90
21950;DHT22;11139;51.284;7.226;2023-05-14T03:56:28;13.70;99.90
21950;DHT22;11139;51.284;7.226;2023-05-14T03:58:54;13.70;99.90
21950;DHT22;11139;51.284;7.226;2023-05-14T04:01:20;13.70;99.90
21950;DHT22;11139;51.284;7.226;2023-05-14T04:03:45;13.60;99.90
21950;DHT22;11139;51.284;7.226;2023-05-14T04:06:11;13.70;99.90
21950;DHT22;11139;51.284;7.226;2023-05-14T04:08:39;13.60;99.90
21950;DHT22;11139;51.284;7.226;2023-05-14T04:11:04;13.60;99.90
21950;DHT22;11139;51.284;7.226;2023-05-14T04:13:37;13.70;99.90
21950;DHT22;11139;51.284;7.226;2023-05-14T04:16:09;13.70;99.90
21950;DHT22;11139;51.284;7.226;2023-05-14T04:18:35;13.60;99.90
21950;DHT22;11139;51.284;7.226;2023-05-14T04:21:00;13.60;99.90
21950;DHT22;11139;51.284;7.226;2023-05-14T04:23:26;13.60;99.90
21950;DHT22;11139;51.284;7.226;2023-05-14T04:25:51;13.60;99.90
21950;DHT22;11139;51.284;7.226;2023-05-14T04:28:17;13.60;99.90
21950;DHT22;11139;51.284;7.226;2023-05-14T04:30:42;13.60;99.90
21950;DHT22;11139;51.284;7.226;2023-05-14T04:33:08;13.60;99.90
21950;DHT22;11139;51.284;7.226;2023-05-14T04:35:33;13.60;99.90
21950;DHT22;11139;51.284;7.226;2023-05-14T04:37:59;13.60;99.90
21950;DHT22;11139;51.284;7.226;2023-05-14T04:40:24;13.60;99.90
21950;DHT22;11139;51.284;7.226;2023-05-14T04:42:50;13.50;99.90
21950;DHT22;11139;51.284;7.226;2023-05-14T04:45:15;13.60;99.90
21950;DHT22;11139;51.284;7.226;2023-05-14T04:47:41;13.60;99.90
21950;DHT22;11139;51.284;7.226;2023-05-14T04:50:07;13.50;99.90
21950;DHT22;11139;51.284;7.226;2023-05-14T04:52:34;13.60;99.90
21950;DHT22;11139;51.284;7.226;2023-05-14T04:54:59;13.50;99.90
21950;DHT22;11139;51.284;7.226;2023-05-14T04:57:25;13.50;99.90
21950;DHT22;11139;51.284;7.226;2023-05-14T04:59:50;13.50;99.90
21950;DHT22;11139;51.284;7.226;2023-05-14T05:02:16;13.50;99.90
21950;DHT22;11139;51.284;7.226;2023-05-14T05:04:42;13.60;99.90
21950;DHT22;11139;51.284;7.226;2023-05-14T05:07:07;13.60;99.90
21950;DHT22;11139;51.284;7.226;2023-05-14T05:09:32;13.50;99.90
21950;DHT22;11139;51.284;7.226;2023-05-14T05:11:58;13.50;99.90
21950;DHT22;11139;51.284;7.226;2023-05-14T05:14:25;13.60;99.90
21950;DHT22;11139;51.284;7.226;2023-05-14T05:16:51;13.50;99.90
21950;DHT22;11139;51.284;7.226;2023-05-14T05:19:16;13.50;99.90
21950;DHT22;11139;51.284;7.226;2023-05-14T05:21:42;13.50;99.90
21950;DHT22;11139;51.284;7.226;2023-05-14T05:24:07;13.50;99.90
21950;DHT22;11139;51.284;7.226;2023-05-14T05:26:33;13.50;99.90
21950;DHT22;11139;51.284;7.226;2023-05-14T05:29:01;13.60;99.90
21950;DHT22;11139;51.284;7.226;2023-05-14T05:31:27;13.50;99.90
21950;DHT22;11139;51.284;7.226;2023-05-14T05:33:52;13.50;99.90
21950;DHT22;11139;51.284;7.226;2023-05-14T05:36:18;13.50;99.90
21950;DHT22;11139;51.284;7.226;2023-05-14T05:38:43;13.50;99.90
21950;DHT22;11139;51.284;7.226;2023-05-14T05:41:09;13.50;99.90
21950;DHT22;11139;51.284;7.226;2023-05-14T05:43:34;13.50;99.90
21950;DHT22;11139;51.284;7.226;2023-05-14T05:46:01;13.50;99.90
21950;DHT22;11139;51.284;7.226;2023-05-14T05:48:26;13.60;99.90
21950;DHT22;11139;51.284;7.226;2023-05-14T05:50:52;13.50;99.90
21950;DHT22;11139;51.284;7.226;2023-05-14T05:53:18;13.50;99.90
21950;DHT22;11139;51.284;7.226;2023-05-14T05:55:43;13.60;99.90
21950;DHT22;11139;51.284;7.226;2023-05-14T05:58:09;13.60;99.90
21950;DHT22;11139;51.284;7.226;2023-05-14T06:00:34;13.60;99.90
21950;DHT22;11139;51.284;7.226;2023-05-14T06:03:00;13.60;99.90
21950;DHT22;11139;51.284;7.226;2023-05-14T06:05:25;13.50;99.90
21950;DHT22;11139;51.284;7.226;2023-05-14T06:07:51;13.60;99.90
21950;DHT22;11139;51.284;7.226;2023-05-14T06:10:19;13.60;99.90
21950;DHT22;11139;51.284;7.226;2023-05-14T06:12:45;13.60;99.90
21950;DHT22;11139;51.284;7.226;2023-05-14T06:15:10;13.60;99.90
21950;DHT22;11139;51.284;7.226;2023-05-14T06:17:36;13.60;99.90
21950;DHT22;11139;51.284;7.226;2023-05-14T06:20:02;13.60;99.90
21950;DHT22;11139;51.284;7.226;2023-05-14T06:22:29;13.60;99.90
21950;DHT22;11139;51.284;7.226;2023-05-14T06:24:55;13.60;99.90
21950;DHT22;11139;51.284;7.226;2023-05-14T06:27:20;13.60;99.90
21950;DHT22;11139;51.284;7.226;2023-05-14T06:29:46;13.60;99.90
21950;DHT22;11139;51.284;7.226;2023-05-14T06:32:11;13.60;99.90
21950;DHT22;11139;51.284;7.226;2023-05-14T06:34:40;13.60;99.90
21950;DHT22;11139;51.284;7.226;2023-05-14T06:37:05;13.60;99.90
21950;DHT22;11139;51.284;7.226;2023-05-14T06:39:31;13.60;99.90
21950;DHT22;11139;51.284;7.226;2023-05-14T06:41:56;13.60;99.90
21950;DHT22;11139;51.284;7.226;2023-05-14T06:44:22;13.60;99.90
21950;DHT22;11139;51.284;7.226;2023-05-14T06:46:47;13.60;99.90
21950;DHT22;11139;51.284;7.226;2023-05-14T06:49:13;13.60;99.90
21950;DHT22;11139;51.284;7.226;2023-05-14T06:51:38;13.60;99.90
21950;DHT22;11139;51.284;7.226;2023-05-14T06:54:05;13.60;99.90
21950;DHT22;11139;51.284;7.226;2023-05-14T06:56:30;13.70;99.90
21950;DHT22;11139;51.284;7.226;2023-05-14T06:58:55;13.70;99.90
21950;DHT22;11139;51.284;7.226;2023-05-14T07:01:21;13.70;99.90
21950;DHT22;11139;51.284;7.226;2023-05-14T07:03:46;13.70;99.90
21950;DHT22;11139;51.284;7.226;2023-05-14T07:06:12;13.70;99.90
21950;DHT22;11139;51.284;7.226;2023-05-14T07:08:38;13.70;99.90
21950;DHT22;11139;51.284;7.226;2023-05-14T07:11:03;13.70;99.90
21950;DHT22;11139;51.284;7.226;2023-05-14T07:13:29;13.70;99.90
21950;DHT22;11139;51.284;7.226;2023-05-14T07:15:55;13.80;99.90
21950;DHT22;11139;51.284;7.226;2023-05-14T07:18:20;13.80;99.90
21950;DHT22;11139;51.284;7.226;2023-05-14T07:20:46;13.80;99.90
21950;DHT22;11139;51.284;7.226;2023-05-14T07:23:12;13.80;99.90
21950;DHT22;11139;51.284;7.226;2023-05-14T07:25:37;13.80;99.90
21950;DHT22;11139;51.284;7.226;2023-05-14T07:28:03;13.80;99.90
21950;DHT22;11139;51.284;7.226;2023-05-14T07:30:29;13.80;99.90
21950;DHT22;11139;51.284;7.226;2023-05-14T07:32:54;13.80;99.90
21950;DHT22;11139;51.284;7.226;2023-05-14T07:35:19;13.90;99.90
21950;DHT22;11139;51.284;7.226;2023-05-14T07:37:45;13.90;99.90
21950;DHT22;11139;51.284;7.226;2023-05-14T07:40:11;13.90;99.90
21950;DHT22;11139;51.284;7.226;2023-05-14T07:42:36;13.90;99.90
21950;DHT22;11139;51.284;7.226;2023-05-14T07:45:02;13.90;99.90
21950;DHT22;11139;51.284;7.226;2023-05-14T07:47:27;13.90;99.90
21950;DHT22;11139;51.284;7.226;2023-05-14T07:49:53;13.90;99.90
21950;DHT22;11139;51.284;7.226;2023-05-14T07:52:19;14.00;99.90
21950;DHT22;11139;51.284;7.226;2023-05-14T07:54:45;13.90;99.90
21950;DHT22;11139;51.284;7.226;2023-05-14T07:57:10;14.00;99.90
21950;DHT22;11139;51.284;7.226;2023-05-14T07:59:36;13.90;99.90
21950;DHT22;11139;51.284;7.226;2023-05-14T08:02:01;13.90;99.90
21950;DHT22;11139;51.284;7.226;2023-05-14T08:04:27;14.00;99.90
21950;DHT22;11139;51.284;7.226;2023-05-14T08:06:52;14.00;99.90
21950;DHT22;11139;51.284;7.226;2023-05-14T08:09:18;14.00;99.90
21950;DHT22;11139;51.284;7.226;2023-05-14T08:11:44;14.00;99.90
21950;DHT22;11139;51.284;7.226;2023-05-14T08:14:09;14.00;99.90
21950;DHT22;11139;51.284;7.226;2023-05-14T08:16:35;14.10;99.90
21950;DHT22;11139;51.284;7.226;2023-05-14T08:19:00;14.10;99.90
21950;DHT22;11139;51.284;7.226;2023-05-14T08:21:26;14.10;99.90
21950;DHT22;11139;51.284;7.226;2023-05-14T08:23:52;14.10;99.90
21950;DHT22;11139;51.284;7.226;2023-05-14T08:26:17;14.10;99.90
21950;DHT22;11139;51.284;7.226;2023-05-14T08:28:43;14.20;99.90
21950;DHT22;11139;51.284;7.226;2023-05-14T08:31:08;14.10;99.90
21950;DHT22;11139;51.284;7.226;2023-05-14T08:33:34;14.10;99.90
21950;DHT22;11139;51.284;7.226;2023-05-14T08:35:59;14.10;99.90
21950;DHT22;11139;51.284;7.226;2023-05-14T08:38:25;14.20;99.90
21950;DHT22;11139;51.284;7.226;2023-05-14T08:40:54;14.20;99.90
21950;DHT22;11139;51.284;7.226;2023-05-14T08:43:20;14.20;99.90
21950;DHT22;11139;51.284;7.226;2023-05-14T08:45:50;14.20;99.90
21950;DHT22;11139;51.284;7.226;2023-05-14T08:48:18;14.20;99.90
21950;DHT22;11139;51.284;7.226;2023-05-14T08:50:45;14.10;99.90
21950;DHT22;11139;51.284;7.226;2023-05-14T08:53:11;14.40;99.90
21950;DHT22;11139;51.284;7.226;2023-05-14T08:55:36;14.70;99.90
21950;DHT22;11139;51.284;7.226;2023-05-14T08:58:02;14.70;99.90
21950;DHT22;11139;51.284;7.226;2023-05-14T09:00:27;14.60;99.90
21950;DHT22;11139;51.284;7.226;2023-05-14T09:02:53;14.60;99.90
21950;DHT22;11139;51.284;7.226;2023-05-14T09:05:19;14.50;99.90
21950;DHT22;11139;51.284;7.226;2023-05-14T09:07:45;14.50;99.90
21950;DHT22;11139;51.284;7.226;2023-05-14T09:10:10;14.50;99.90
21950;DHT22;11139;51.284;7.226;2023-05-14T09:12:36;14.50;99.90
21950;DHT22;11139;51.284;7.226;2023-05-14T09:15:02;14.50;99.90
21950;DHT22;11139;51.284;7.226;2023-05-14T09:17:27;14.50;99.90
21950;DHT22;11139;51.284;7.226;2023-05-14T09:19:53;14.50;99.90
21950;DHT22;11139;51.284;7.226;2023-05-14T09:22:18;14.50;99.90
21950;DHT22;11139;51.284;7.226;2023-05-14T09:24:44;14.50;99.90
21950;DHT22;11139;51.284;7.226;2023-05-14T09:27:19;14.50;99.90
21950;DHT22;11139;51.284;7.226;2023-05-14T09:29:47;14.50;99.90
21950;DHT22;11139;51.284;7.226;2023-05-14T09:32:13;14.50;99.90
21950;DHT22;11139;51.284;7.226;2023-05-14T09:34:38;14.50;99.90
21950;DHT22;11139;51.284;7.226;2023-05-14T09:37:05;14.50;99.90
21950;DHT22;11139;51.284;7.226;2023-05-14T09:39:31;14.50;99.90
21950;DHT22;11139;51.284;7.226;2023-05-14T09:41:57;14.50;99.90
21950;DHT22;11139;51.284;7.226;2023-05-14T09:44:22;14.50;99.90
21950;DHT22;11139;51.284;7.226;2023-05-14T09:46:48;14.60;99.90
21950;DHT22;11139;51.284;7.226;2023-05-14T09:49:15;14.60;99.90
21950;DHT22;11139;51.284;7.226;2023-05-14T09:51:40;14.60;99.90
21950;DHT22;11139;51.284;7.226;2023-05-14T09:54:06;14.60;99.90
21950;DHT22;11139;51.284;7.226;2023-05-14T09:56:32;14.60;99.90
21950;DHT22;11139;51.284;7.226;2023-05-14T09:58:58;14.60;99.90
21950;DHT22;11139;51.284;7.226;2023-05-14T10:01:23;14.70;99.90
21950;DHT22;11139;51.284;7.226;2023-05-14T10:03:50;14.70;99.90
21950;DHT22;11139;51.284;7.226;2023-05-14T10:06:16;14.70;99.90
21950;DHT22;11139;51.284;7.226;2023-05-14T10:08:43;14.70;99.90
21950;DHT22;11139;51.284;7.226;2023-05-14T10:11:14;14.80;99.90
21950;DHT22;11139;51.284;7.226;2023-05-14T10:13:51;14.70;99.90
21950;DHT22;11139;51.284;7.226;2023-05-14T10:16:19;14.80;99.90
21950;DHT22;11139;51.284;7.226;2023-05-14T10:18:46;14.70;99.90
21950;DHT22;11139;51.284;7.226;2023-05-14T10:21:16;14.80;99.90
21950;DHT22;11139;51.284;7.226;2023-05-14T10:23:44;14.80;99.90
21950;DHT22;11139;51.284;7.226;2023-05-14T10:26:10;14.80;99.90
21950;DHT22;11139;51.284;7.226;2023-05-14T10:28:36;14.80;99.90
21950;DHT22;11139;51.284;7.226;2023-05-14T10:31:01;14.80;99.90
21950;DHT22;11139;51.284;7.226;2023-05-14T10:33:27;14.90;99.90
21950;DHT22;11139;51.284;7.226;2023-05-14T10:35:57;14.90;99.90
21950;DHT22;11139;51.284;7.226;2023-05-14T10:38:42;15.00;99.90
21950;DHT22;11139;51.284;7.226;2023-05-14T10:41:11;14.90;99.90
21950;DHT22;11139;51.284;7.226;2023-05-14T10:43:38;15.00;99.90
21950;DHT22;11139;51.284;7.226;2023-05-14T10:46:04;15.00;99.90
21950;DHT22;11139;51.284;7.226;2023-05-14T10:48:29;15.00;99.90
21950;DHT22;11139;51.284;7.226;2023-05-14T10:50:56;15.00;99.90
21950;DHT22;11139;51.284;7.226;2023-05-14T10:53:31;15.00;99.90
21950;DHT22;11139;51.284;7.226;2023-05-14T10:56:00;15.00;99.90
21950;DHT22;11139;51.284;7.226;2023-05-14T10:58:25;15.10;99.90
21950;DHT22;11139;51.284;7.226;2023-05-14T11:00:53;15.10;99.90
21950;DHT22;11139;51.284;7.226;2023-05-14T11:03:19;15.20;99.90
21950;DHT22;11139;51.284;7.226;2023-05-14T11:05:45;15.20;99.90
21950;DHT22;11139;51.284;7.226;2023-05-14T11:08:10;15.80;99.90
21950;DHT22;11139;51.284;7.226;2023-05-14T11:10:36;16.30;99.90
21950;DHT22;11139;51.284;7.226;2023-05-14T11:13:03;16.40;99.90
21950;DHT22;11139;51.284;7.226;2023-05-14T11:15:28;16.50;99.90
21950;DHT22;11139;51.284;7.226;2023-05-14T11:17:55;16.60;99.90
21950;DHT22;11139;51.284;7.226;2023-05-14T11:20:20;17.40;99.90
21950;DHT22;11139;51.284;7.226;2023-05-14T11:22:46;17.40;99.90
21950;DHT22;11139;51.284;7.226;2023-05-14T11:25:12;17.10;99.90
21950;DHT22;11139;51.284;7.226;2023-05-14T11:27:39;17.00;99.90
21950;DHT22;11139;51.284;7.226;2023-05-14T11:30:10;17.00;99.90
21950;DHT22;11139;51.284;7.226;2023-05-14T11:32:36;17.00;99.90
21950;DHT22;11139;51.284;7.226;2023-05-14T11:35:02;17.00;99.90
21950;DHT22;11139;51.284;7.226;2023-05-14T11:37:27;17.00;99.90
21950;DHT22;11139;51.284;7.226;2023-05-14T11:39:57;17.00;99.90
21950;DHT22;11139;51.284;7.226;2023-05-14T11:42:23;17.00;99.90
21950;DHT22;11139;51.284;7.226;2023-05-14T11:44:50;16.90;99.90
21950;DHT22;11139;51.284;7.226;2023-05-14T11:47:16;16.90;99.90
21950;DHT22;11139;51.284;7.226;2023-05-14T11:49:42;16.90;99.90
21950;DHT22;11139;51.284;7.226;2023-05-14T11:52:08;17.00;99.90
21950;DHT22;11139;51.284;7.226;2023-05-14T11:54:36;17.00;99.90
21950;DHT22;11139;51.284;7.226;2023-05-14T11:57:02;17.00;99.90
21950;DHT22;11139;51.284;7.226;2023-05-14T11:59:31;17.00;99.90
21950;DHT22;11139;51.284;7.226;2023-05-14T12:01:57;17.00;99.90
21950;DHT22;11139;51.284;7.226;2023-05-14T12:04:22;16.90;99.90
21950;DHT22;11139;51.284;7.226;2023-05-14T12:06:48;16.90;99.90
21950;DHT22;11139;51.284;7.226;2023-05-14T12:09:18;16.90;99.90
21950;DHT22;11139;51.284;7.226;2023-05-14T12:11:44;17.00;99.90
21950;DHT22;11139;51.284;7.226;2023-05-14T12:14:14;17.00;99.90
21950;DHT22;11139;51.284;7.226;2023-05-14T12:16:40;17.00;99.90
21950;DHT22;11139;51.284;7.226;2023-05-14T12:19:09;17.20;99.90
21950;DHT22;11139;51.284;7.226;2023-05-14T12:21:38;17.50;99.90
21950;DHT22;11139;51.284;7.226;2023-05-14T12:24:03;17.30;99.90
21950;DHT22;11139;51.284;7.226;2023-05-14T12:26:33;17.20;99.90
21950;DHT22;11139;51.284;7.226;2023-05-14T12:28:59;17.20;99.90
21950;DHT22;11139;51.284;7.226;2023-05-14T12:31:29;17.20;99.90
21950;DHT22;11139;51.284;7.226;2023-05-14T12:33:55;17.10;99.90
21950;DHT22;11139;51.284;7.226;2023-05-14T12:36:20;17.10;99.90
21950;DHT22;11139;51.284;7.226;2023-05-14T12:38:46;17.10;99.90
21950;DHT22;11139;51.284;7.226;2023-05-14T12:41:11;17.10;99.90
21950;DHT22;11139;51.284;7.226;2023-05-14T12:43:37;17.10;99.90
21950;DHT22;11139;51.284;7.226;2023-05-14T12:46:02;17.20;99.90
21950;DHT22;11139;51.284;7.226;2023-05-14T12:48:28;17.10;99.90
21950;DHT22;11139;51.284;7.226;2023-05-14T12:50:53;17.20;99.90
21950;DHT22;11139;51.284;7.226;2023-05-14T12:53:19;17.20;99.90
21950;DHT22;11139;51.284;7.226;2023-05-14T12:55:45;17.40;99.90
21950;DHT22;11139;51.284;7.226;2023-05-14T12:58:10;17.30;99.90
21950;DHT22;11139;51.284;7.226;2023-05-14T13:00:36;17.30;99.90
21950;DHT22;11139;51.284;7.226;2023-05-14T13:03:01;17.30;99.90
21950;DHT22;11139;51.284;7.226;2023-05-14T13:05:27;17.30;99.90
21950;DHT22;11139;51.284;7.226;2023-05-14T13:07:52;17.30;99.90
21950;DHT22;11139;51.284;7.226;2023-05-14T13:10:18;17.30;99.90
21950;DHT22;11139;51.284;7.226;2023-05-14T13:12:43;17.30;99.90
21950;DHT22;11139;51.284;7.226;2023-05-14T13:15:09;17.40;99.90
21950;DHT22;11139;51.284;7.226;2023-05-14T13:17:35;17.60;99.90
21950;DHT22;11139;51.284;7.226;2023-05-14T13:20:01;17.90;99.90
21950;DHT22;11139;51.284;7.226;2023-05-14T13:22:26;17.90;99.90
21950;DHT22;11139;51.284;7.226;2023-05-14T13:24:52;17.70;99.90
21950;DHT22;11139;51.284;7.226;2023-05-14T13:27:17;17.50;99.90
21950;DHT22;11139;51.284;7.226;2023-05-14T13:29:43;17.40;99.90
21950;DHT22;11139;51.284;7.226;2023-05-14T13:32:08;17.40;99.90
21950;DHT22;11139;51.284;7.226;2023-05-14T13:34:34;17.40;99.90
21950;DHT22;11139;51.284;7.226;2023-05-14T13:36:59;17.40;99.90
21950;DHT22;11139;51.284;7.226;2023-05-14T13:39:25;17.40;99.90
21950;DHT22;11139;51.284;7.226;2023-05-14T13:41:51;17.40;99.90
21950;DHT22;11139;51.284;7.226;2023-05-14T13:44:17;17.50;99.90
21950;DHT22;11139;51.284;7.226;2023-05-14T13:46:42;17.40;99.90
21950;DHT22;11139;51.284;7.226;2023-05-14T13:49:08;17.50;99.90
21950;DHT22;11139;51.284;7.226;2023-05-14T13:51:33;17.50;99.90
21950;DHT22;11139;51.284;7.226;2023-05-14T13:53:59;17.50;99.90
21950;DHT22;11139;51.284;7.226;2023-05-14T13:56:24;17.50;99.90
21950;DHT22;11139;51.284;7.226;2023-05-14T13:58:50;17.50;99.90
21950;DHT22;11139;51.284;7.226;2023-05-14T14:01:15;17.50;99.90
21950;DHT22;11139;51.284;7.226;2023-05-14T14:03:41;17.40;99.90
21950;DHT22;11139;51.284;7.226;2023-05-14T14:06:06;17.40;99.90
21950;DHT22;11139;51.284;7.226;2023-05-14T14:08:32;17.30;99.90
21950;DHT22;11139;51.284;7.226;2023-05-14T14:10:57;17.20;99.90
21950;DHT22;11139;51.284;7.226;2023-05-14T14:13:23;17.20;99.90
21950;DHT22;11139;51.284;7.226;2023-05-14T14:15:48;17.20;99.90
21950;DHT22;11139;51.284;7.226;2023-05-14T14:18:14;17.10;99.90
21950;DHT22;11139;51.284;7.226;2023-05-14T14:20:39;17.00;99.90
21950;DHT22;11139;51.284;7.226;2023-05-14T14:23:05;17.10;99.90
21950;DHT22;11139;51.284;7.226;2023-05-14T14:25:31;17.20;99.90
21950;DHT22;11139;51.284;7.226;2023-05-14T14:27:59;17.20;99.90
21950;DHT22;11139;51.284;7.226;2023-05-14T14:30:25;17.20;99.90
21950;DHT22;11139;51.284;7.226;2023-05-14T14:32:50;17.30;99.90
21950;DHT22;11139;51.284;7.226;2023-05-14T14:35:16;17.30;99.90
21950;DHT22;11139;51.284;7.226;2023-05-14T14:37:42;17.30;99.90
21950;DHT22;11139;51.284;7.226;2023-05-14T14:40:09;17.40;99.90
21950;DHT22;11139;51.284;7.226;2023-05-14T14:42:35;17.40;99.90
21950;DHT22;11139;51.284;7.226;2023-05-14T14:45:02;17.30;99.90
21950;DHT22;11139;51.284;7.226;2023-05-14T14:47:28;17.40;99.90
21950;DHT22;11139;51.284;7.226;2023-05-14T14:49:54;17.40;99.90
21950;DHT22;11139;51.284;7.226;2023-05-14T14:52:20;17.40;99.90
21950;DHT22;11139;51.284;7.226;2023-05-14T14:54:45;17.40;99.90
21950;DHT22;11139;51.284;7.226;2023-05-14T14:57:11;17.40;99.90
21950;DHT22;11139;51.284;7.226;2023-05-14T14:59:36;17.30;99.90
21950;DHT22;11139;51.284;7.226;2023-05-14T15:02:02;17.30;99.90
21950;DHT22;11139;51.284;7.226;2023-05-14T15:04:27;17.30;99.90
21950;DHT22;11139;51.284;7.226;2023-05-14T15:06:57;17.20;99.90
21950;DHT22;11139;51.284;7.226;2023-05-14T15:09:22;17.20;99.90
21950;DHT22;11139;51.284;7.226;2023-05-14T15:11:47;17.20;99.90
21950;DHT22;11139;51.284;7.226;2023-05-14T15:14:13;17.20;99.90
21950;DHT22;11139;51.284;7.226;2023-05-14T15:16:38;17.20;99.90
21950;DHT22;11139;51.284;7.226;2023-05-14T15:19:04;17.30;99.90
21950;DHT22;11139;51.284;7.226;2023-05-14T15:21:29;17.20;99.90
21950;DHT22;11139;51.284;7.226;2023-05-14T15:23:56;17.30;99.90
21950;DHT22;11139;51.284;7.226;2023-05-14T15:26:21;17.20;99.90